Flight Track Log - Related Links

Times and Time Zones

All times are in EDT time to prevent confusion due to time zone crossing. See the SWA412 flight status page for this flight to view local times or setup timezone preferences in your user account.

Time Position Orientation Groundspeed Altitude Reporting Facility
EDT Latitude Longitude Course Direction KTS MPH feet Rate Location/Type
Mon 08:01:56 PM 39.9167 -104.6833 49° Northeast 208 239 6,700  Level Denver TRACON
Mon 08:02:56 PM 39.9500 -104.6333 49° Northeast 209 241 8,400 1,737 Climbing Denver TRACON
Mon 08:03:50 PM 40.0000 -104.6000 27° Northeast 259 298 10,000 1,700 Climbing Denver TRACON
Mon 08:04:56 PM 39.9833 -104.4833 101° East 347 399 11,800 2,087 Climbing Denver TRACON
Mon 08:06:08 PM 39.9303 -104.3417 116° Southeast 372 428 14,800 2,667 Climbing Denver Center
Mon 08:07:11 PM 39.9183 -104.1883 96° East 394 453 17,800 2,736 Climbing Denver Center
Mon 08:08:13 PM 39.9069 -104.0392 96° East 412 474 20,500 2,371 Climbing Denver Center
Mon 08:09:15 PM 39.8939 -103.8819 96° East 434 499 22,700 2,274 Climbing Denver Center
Mon 08:10:17 PM 39.8861 -103.7067 93° East 447 514 25,200 2,226 Climbing Denver Center
Mon 08:11:19 PM 39.9044 -103.5492 81° East 443 510 27,300 1,935 Climbing Denver Center
Mon 08:12:21 PM 39.9236 -103.3864 81° East 453 521 29,200 1,984 Climbing Denver Center
Mon 08:13:23 PM 39.9408 -103.2228 82° East 457 526 31,400 1,742 Climbing Denver Center
Mon 08:14:25 PM 39.9597 -103.0617 81° East 452 520 32,800 1,355 Climbing Denver Center
Mon 08:15:27 PM 39.9808 -102.8592 82° East 468 539 34,200 1,065 Climbing Denver Center
Mon 08:16:29 PM 40.0000 -102.6839 82° East 474 545 35,000 387 Climbing Denver Center
Mon 08:17:31 PM 40.0175 -102.5211 82° East 474 545 35,000  Level Denver Center
Mon 08:18:33 PM 40.0361 -102.3333 83° East 469 540 35,000  Level Denver Center
Mon 08:19:35 PM 40.0533 -102.1711 82° East 472 543 35,000  Level Denver Center
Mon 08:20:37 PM 40.0728 -101.9825 82° East 472 543 35,000  Level Denver Center
Mon 08:21:39 PM 40.0889 -101.8192 83° East 474 545 35,000  Level Denver Center
Mon 08:22:41 PM 40.1053 -101.6564 82° East 474 545 35,000 629 Level Denver Center
Mon 08:23:43 PM 40.1239 -101.4656 83° East 476 548 36,300 968 Climbing Denver Center
Mon 08:24:45 PM 40.1394 -101.3028 83° East 474 545 37,000 339 Climbing Denver Center
Mon 08:25:47 PM 40.1583 -101.1083 83° East 481 554 37,000  Level Denver Center
Mon 08:26:49 PM 40.1733 -100.9408 83° East 487 560 37,000  Level Denver Center
Mon 08:27:51 PM 40.1917 -100.7444 83° East 490 564 37,000  Level Denver Center
Mon 08:28:53 PM 40.2050 -100.5761 84° East 491 565 37,000  Level Denver Center
Mon 08:29:55 PM 40.2081 -100.3772 89° East 493 567 37,000 97 Level Denver Center
Mon 08:30:57 PM 40.2108 -100.2058 89° East 496 571 37,200 726 Climbing Denver Center
Mon 08:31:59 PM 40.2133 -100.0067 89° East 494 568 38,500 871 Climbing Denver Center
Mon 08:33:01 PM 40.2161 -99.8181 89° East 494 568 39,000 242 Climbing Denver Center
Mon 08:34:03 PM 40.2181 -99.6378 89° East 496 571 39,000  Level Denver Center
Mon 08:35:05 PM 40.2189 -99.4583 90° East 495 570 39,000  Level Denver Center
Mon 08:36:08 PM 40.2214 -99.2803 89° East 493 567 39,000  Level Denver Center
Mon 08:37:22 PM 40.2222 -99.0283 90° East 498 573 39,000  Level Minneapolis Center
Mon 08:38:25 PM 40.2231 -98.8503 90° East 495 570 39,000  Level Minneapolis Center
Mon 08:39:27 PM 40.2231 -98.6708 90° East 495 570 39,000  Level Minneapolis Center
Mon 08:40:29 PM 40.2225 -98.4917 90° East 495 570 39,000  Level Minneapolis Center
Mon 08:41:31 PM 40.2233 -98.3125 90° East 495 570 39,000  Level Minneapolis Center
Mon 08:42:33 PM 40.2219 -98.1336 91° East 494 568 39,000  Level Minneapolis Center
Mon 08:43:35 PM 40.2214 -97.9186 90° East 493 567 39,000  Level Minneapolis Center
Mon 08:44:37 PM 40.2206 -97.7394 90° East 495 570 39,000  Level Minneapolis Center
Mon 08:45:39 PM 40.2192 -97.5592 91° East 496 571 39,000  Level Minneapolis Center
Mon 08:46:41 PM 40.2167 -97.3797 91° East 496 571 39,000  Level Minneapolis Center
Mon 08:47:43 PM 40.2150 -97.1911 91° East 497 572 39,000  Level Minneapolis Center
Mon 08:48:45 PM 40.2136 -97.0100 91° East 498 573 39,000  Level Minneapolis Center
Mon 08:49:47 PM 40.2111 -96.8294 91° East 500 575 39,000  Level Minneapolis Center
Mon 08:50:49 PM 40.2083 -96.6117 91° East 500 575 39,000  Level Minneapolis Center
Mon 08:51:51 PM 40.2053 -96.4317 91° East 498 573 39,000  Level Minneapolis Center
Mon 08:52:53 PM 40.2242 -96.2558 82° East 492 566 39,000  Level Minneapolis Center
Mon 08:53:56 PM 40.2758 -96.0928 67° East 489 563 39,000  Level Minneapolis Center
Mon 08:54:58 PM 40.3247 -95.9292 69° East 486 559 39,000  Level Minneapolis Center
Mon 08:56:00 PM 40.3747 -95.7619 69° East 491 565 39,000  Level Minneapolis Center
Mon 08:57:02 PM 40.4342 -95.5642 68° East 490 564 39,000  Level Minneapolis Center
Mon 08:58:04 PM 40.4833 -95.3997 68° East 488 562 39,000  Level Minneapolis Center
Mon 08:59:06 PM 40.5325 -95.2319 69° East 490 564 39,000  Level Minneapolis Center
Mon 09:00:08 PM 40.5822 -95.0647 69° East 493 567 39,000  Level Minneapolis Center
Mon 09:01:10 PM 40.6311 -94.8958 69° East 495 570 39,000  Level Minneapolis Center
Mon 09:02:12 PM 40.6889 -94.6936 69° East 493 567 39,000  Level Minneapolis Center
Mon 09:03:14 PM 40.7317 -94.5478 69° East 494 568 39,000  Level Minneapolis Center
Mon 09:04:16 PM 40.7886 -94.3444 70° East 494 568 39,000  Level Minneapolis Center
Mon 09:05:18 PM 40.8342 -94.1764 70° East 492 566 39,000  Level Minneapolis Center
Mon 09:06:20 PM 40.8850 -94.0050 69° East 497 572 39,000  Level Minneapolis Center
Mon 09:07:22 PM 40.9314 -93.8350 70° East 496 571 39,000  Level Minneapolis Center
Mon 09:08:24 PM 40.9783 -93.6633 70° East 497 572 39,000  Level Minneapolis Center
Mon 09:09:26 PM 41.0275 -93.4919 69° East 498 573 39,000  Level Minneapolis Center
Mon 09:10:29 PM 41.0842 -93.2850 70° East 500 575 39,000  Level Minneapolis Center
Mon 09:11:31 PM 41.1317 -93.1122 70° East 500 575 39,000  Level Minneapolis Center
Mon 09:12:33 PM 41.1778 -92.9375 71° East 502 578 39,000  Level Minneapolis Center
Mon 09:13:10 PM 41.2064 -92.8325 70° East 500 575 39,000  Level Chicago Center
Mon 09:14:12 PM 41.2522 -92.6578 71° East 502 578 39,000  Level Chicago Center
Mon 09:15:14 PM 41.2981 -92.4850 71° East 500 575 39,000  Level Chicago Center
Mon 09:16:16 PM 41.3475 -92.2989 70° East 504 580 39,000  Level Chicago Center
Mon 09:17:18 PM 41.4017 -92.0906 71° East 502 578 39,000  Level Chicago Center
Mon 09:18:20 PM 41.4467 -91.9175 71° East 500 575 39,000  Level Chicago Center
Mon 09:19:22 PM 41.4911 -91.7453 71° East 497 572 39,000  Level Chicago Center
Mon 09:20:24 PM 41.5353 -91.5747 71° East 494 568 39,000  Level Chicago Center
Mon 09:21:26 PM 41.5794 -91.4000 71° East 499 574 39,000  Level Chicago Center
Mon 09:22:28 PM 41.6308 -91.1914 72° East 499 574 39,000  Level Chicago Center
Mon 09:23:29 PM 41.6753 -91.0153 71° East 503 579 39,000 -195 Level Chicago Center
Mon 09:24:31 PM 41.7186 -90.8400 72° East 503 579 38,600 -629 Descending Chicago Center
Mon 09:25:33 PM 41.7617 -90.6622 72° East 506 582 37,700 -774 Descending Chicago Center
Mon 09:26:35 PM 41.8050 -90.4856 72° East 506 582 37,000 -339 Descending Chicago Center
Mon 09:27:37 PM 41.8572 -90.2692 72° East 512 589 37,000  Level Chicago Center
Mon 09:28:39 PM 41.9003 -90.0878 72° East 514 592 37,000  Level Chicago Center
Mon 09:29:41 PM 41.9456 -89.8894 73° East 514 592 37,000  Level Chicago Center
Mon 09:30:43 PM 41.9906 -89.7028 72° East 518 596 37,000 -439 Level Chicago Center
Mon 09:31:44 PM 42.0347 -89.5161 72° East 524 603 36,100 -878 Descending Chicago Center
Mon 09:32:46 PM 42.0797 -89.3211 73° East 531 611 35,200 -532 Descending Chicago Center
Mon 09:33:48 PM 42.1219 -89.1306 73° East 532 612 35,000 -97 Descending Chicago Center
Mon 09:34:50 PM 42.1653 -88.9431 73° East 529 609 35,000 -339 Level Chicago Center
Mon 09:35:52 PM 42.2081 -88.7556 73° East 532 612 34,300 -1,268 Descending Chicago Center
Mon 09:36:53 PM 42.2592 -88.5247 73° East 533 613 32,400 -2,049 Descending Chicago Center
Mon 09:37:55 PM 42.3011 -88.3333 73° East 532 612 30,100 -1,597 Descending Chicago Center
Mon 09:38:57 PM 42.3428 -88.1442 73° East 530 610 29,100 -968 Descending Chicago Center
Mon 09:39:59 PM 42.3844 -87.9550 73° East 530 610 28,100 -976 Descending Chicago Center
Mon 09:41:00 PM 42.4247 -87.7694 74° East 520 598 27,100 -1,024 Descending Chicago Center
Mon 09:42:02 PM 42.4636 -87.5819 74° East 513 590 26,000 -1,016 Descending Chicago Center
Mon 09:43:04 PM 42.5019 -87.4019 74° East 503 579 25,000 -1,073 Descending Chicago Center
Mon 09:44:05 PM 42.5467 -87.1900 74° East 490 564 23,800 -1,024 Descending Chicago Center
Mon 09:45:07 PM 42.5822 -87.0311 73° East 488 562 22,900 -1,403 Descending Chicago Center
Mon 09:46:09 PM 42.6347 -86.8667 66° East 480 552 20,900 -2,098 Descending Chicago Center
Mon 09:47:10 PM 42.6836 -86.7081 67° East 462 532 18,600 -2,293 Descending Chicago Center
Mon 09:48:12 PM 42.7264 -86.5508 70° East 448 516 16,200 -2,585 Descending Chicago Center
Mon 09:49:13 PM 42.7583 -86.3622 77° East 431 496 13,300 -2,537 Descending Chicago Center
Mon 09:50:15 PM 42.7789 -86.2092 80° East 420 483 11,000 -1,463 Descending Chicago Center
Mon 09:51:16 PM 42.7994 -86.0714 78° East 389 448 10,300 -780 Descending Chicago Center
Mon 09:52:18 PM 42.8144 -85.9500 80° East 355 409 9,400 -976 Descending Chicago Center
Mon 09:53:19 PM 42.8075 -85.8367 95° East 317 365 8,300 -1,180 Descending Chicago Center
Mon 09:54:20 PM 42.8008 -85.7281 95° East 297 342 7,000 -1,122 Descending Chicago Center
Mon 09:55:22 PM 42.7939 -85.6114 95° East 271 312 6,000 -927 Descending Chicago Center
Mon 09:56:23 PM 42.7886 -85.5231 95° East 246 283 5,100 -976 Descending Chicago Center
Mon 09:57:25 PM 42.7861 -85.4336 92° East 239 275 4,000 -829 Descending Chicago Center
Mon 09:58:26 PM 42.7922 -85.3531 84° East 223 257 3,400 -590 Descending Chicago Center
Mon 09:59:27 PM 42.8308 -85.3358 18° North 180 207 2,800 -439 Descending Chicago Center
Mon 10:00:29 PM 42.8689 -85.3475 347° North 155 178 2,500 -146 Descending Chicago Center
Mon 10:01:30 PM 42.8894 -85.3894 304° West 146 168 2,500 -344 Level Chicago Center
Mon 10:02:31 PM 42.8897 -85.4381 270° West 135 155 1,800 -683 Descending Chicago Center
Mon 10:03:33 PM 42.8825 -85.4897 259° West 123 142 1,100 -439 Descending Chicago Center
Mon 10:04:34 PM 42.8772 -85.5322 260° West 121 139 900 -197 Descending Chicago Center

Login

Don't have an account? Register now (free) for customized features, flight alerts, and more!